createdAt,value
2023-04-25T00:01:04.918Z,100411.22
2023-04-25T00:03:33.379Z,100405.56
2023-04-25T00:06:03.329Z,100401.34
2023-04-25T00:08:31.531Z,100398.84
2023-04-25T00:11:00.073Z,100404.72
2023-04-25T00:13:27.990Z,100414.22
2023-04-25T00:15:55.744Z,100417.47
2023-04-25T00:18:23.718Z,100421.53
2023-04-25T00:20:51.716Z,100421.69
2023-04-25T00:23:19.589Z,100418.44
2023-04-25T00:25:48.985Z,100416.63
2023-04-25T00:28:17.505Z,100413.59
2023-04-25T00:30:45.561Z,100411.81
2023-04-25T00:33:13.442Z,100407.13
2023-04-25T00:35:41.359Z,100412.06
2023-04-25T00:38:09.106Z,100421.06
2023-04-25T00:40:36.686Z,100425.53
2023-04-25T00:43:05.264Z,100424.69
2023-04-25T00:45:39.312Z,100431.75
2023-04-25T00:48:07.515Z,100438.88
2023-04-25T00:50:35.708Z,100426.97
2023-04-25T00:53:04.540Z,100427.69
2023-04-25T00:55:32.578Z,100434.78
2023-04-25T00:58:01.386Z,100433.00
2023-04-25T01:00:29.892Z,100426.34
2023-04-25T01:02:57.969Z,100422.66
2023-04-25T01:05:25.929Z,100424.56
2023-04-25T01:07:53.938Z,100423.59
2023-04-25T01:10:21.754Z,100411.94
2023-04-25T01:12:49.546Z,100415.16
2023-04-25T01:15:17.373Z,100403.53
2023-04-25T01:17:45.431Z,100407.22
2023-04-25T01:20:14.970Z,100416.84
2023-04-25T01:22:43.649Z,100423.09
2023-04-25T01:25:12.684Z,100413.97
2023-04-25T01:27:41.296Z,100405.31
2023-04-25T01:30:11.185Z,100395.19
2023-04-25T01:32:39.730Z,100397.97
2023-04-25T01:35:10.431Z,100400.38
2023-04-25T01:37:41.915Z,100395.91
2023-04-25T01:40:11.612Z,100401.09
2023-04-25T01:42:44.396Z,100392.22
2023-04-25T01:45:12.621Z,100391.38
2023-04-25T01:47:41.288Z,100386.06
2023-04-25T01:50:09.906Z,100375.59
2023-04-25T01:52:37.441Z,100372.34
2023-04-25T01:55:05.767Z,100374.38
2023-04-25T01:57:33.706Z,100364.28
2023-04-25T02:00:05.037Z,100359.00
2023-04-25T02:02:34.066Z,100358.16
2023-04-25T02:05:02.261Z,100357.69
2023-04-25T02:07:30.186Z,100357.06
2023-04-25T02:09:57.696Z,100359.97
2023-04-25T02:12:27.275Z,100361.88
2023-04-25T02:14:55.532Z,100359.09
2023-04-25T02:17:23.327Z,100355.63
2023-04-25T02:19:51.255Z,100353.97
2023-04-25T02:22:19.097Z,100348.53
2023-04-25T02:24:47.521Z,100346.88
2023-04-25T02:27:15.331Z,100347.69
2023-04-25T02:29:43.133Z,100347.22
2023-04-25T02:32:10.970Z,100347.06
2023-04-25T02:34:38.539Z,100341.22
2023-04-25T02:37:06.371Z,100335.78
2023-04-25T02:39:33.978Z,100339.28
2023-04-25T02:42:02.044Z,100335.94
2023-04-25T02:44:29.540Z,100328.81
2023-04-25T02:46:57.373Z,100325.22
2023-04-25T02:49:25.219Z,100321.63
2023-04-25T02:51:53.029Z,100321.63
2023-04-25T02:54:20.554Z,100328.72
2023-04-25T02:56:48.140Z,100322.25
2023-04-25T02:59:15.859Z,100322.34
2023-04-25T03:01:43.864Z,100315.34
2023-04-25T03:04:11.653Z,100319.09
2023-04-25T03:06:39.442Z,100317.06
2023-04-25T03:09:07.376Z,100312.50
2023-04-25T03:11:35.557Z,100305.88
2023-04-25T03:14:03.482Z,100306.38
2023-04-25T03:16:32.024Z,100306.13
2023-04-25T03:18:59.602Z,100304.22
2023-04-25T03:21:27.534Z,100302.88
2023-04-25T03:23:55.094Z,100301.78
2023-04-25T03:26:22.604Z,100300.59
2023-04-25T03:28:50.338Z,100300.22
2023-04-25T03:31:17.912Z,100300.13
2023-04-25T03:33:45.352Z,100299.16
2023-04-25T03:36:13.083Z,100296.38
2023-04-25T03:38:42.445Z,100297.22
2023-04-25T03:41:10.369Z,100290.38
2023-04-25T03:43:38.137Z,100289.06
2023-04-25T03:46:05.878Z,100287.63
2023-04-25T03:48:33.409Z,100284.13
2023-04-25T03:51:00.994Z,100280.03
2023-04-25T03:53:28.929Z,100285.34
2023-04-25T03:55:56.535Z,100282.53
2023-04-25T03:58:25.466Z,100281.50
2023-04-25T04:00:52.991Z,100275.09
2023-04-25T04:03:21.715Z,100264.72
2023-04-25T04:05:49.941Z,100271.72
2023-04-25T04:08:17.437Z,100277.75
2023-04-25T04:10:45.068Z,100266.78
2023-04-25T04:13:12.482Z,100260.97
2023-04-25T04:15:40.548Z,100263.03
2023-04-25T04:18:08.349Z,100267.69
2023-04-25T04:20:36.194Z,100261.31
2023-04-25T04:23:04.140Z,100268.88
2023-04-25T04:25:31.683Z,100266.94
2023-04-25T04:27:59.753Z,100267.66
2023-04-25T04:30:30.576Z,100265.72
2023-04-25T04:32:58.918Z,100267.03
2023-04-25T04:35:26.764Z,100265.22
2023-04-25T04:37:55.658Z,100268.31
2023-04-25T04:40:23.212Z,100268.22
2023-04-25T04:42:50.690Z,100262.78
2023-04-25T04:45:18.234Z,100265.91
2023-04-25T04:47:46.879Z,100262.25
2023-04-25T04:50:16.021Z,100266.34
2023-04-25T04:52:44.233Z,100264.44
2023-04-25T04:55:12.062Z,100265.72
2023-04-25T04:57:40.528Z,100260.16
2023-04-25T05:00:11.944Z,100263.41
2023-04-25T05:02:40.473Z,100267.47
2023-04-25T05:05:09.041Z,100260.81
2023-04-25T05:07:36.986Z,100260.44
2023-04-25T05:10:05.440Z,100263.53
2023-04-25T05:12:34.005Z,100254.94
2023-04-25T05:15:01.985Z,100265.81
2023-04-25T05:17:29.701Z,100267.69
2023-04-25T05:19:58.154Z,100268.97
2023-04-25T05:22:26.011Z,100265.19
2023-04-25T05:24:55.826Z,100268.31
2023-04-25T05:27:24.973Z,100269.72
2023-04-25T05:29:53.780Z,100266.09
2023-04-25T05:32:22.768Z,100266.78
2023-04-25T05:34:50.387Z,100266.09
2023-04-25T05:37:18.367Z,100260.66
2023-04-25T05:39:45.913Z,100260.81
2023-04-25T05:42:13.574Z,100267.00
2023-04-25T05:44:41.000Z,100270.53
2023-04-25T05:47:08.657Z,100268.34
2023-04-25T05:49:36.318Z,100273.72
2023-04-25T05:52:04.174Z,100278.88
2023-04-25T05:54:31.968Z,100267.72
2023-04-25T05:56:59.840Z,100268.72
2023-04-25T05:59:27.345Z,100263.56
2023-04-25T06:01:54.827Z,100262.31
2023-04-25T06:04:22.581Z,100262.59
2023-04-25T06:06:50.353Z,100269.06
2023-04-25T06:09:17.852Z,100260.94
2023-04-25T06:11:45.808Z,100259.63
2023-04-25T06:14:13.576Z,100251.22
2023-04-25T06:16:41.405Z,100259.22
2023-04-25T06:19:09.286Z,100253.88
2023-04-25T06:21:37.707Z,100250.28
2023-04-25T06:24:05.811Z,100240.06
2023-04-25T06:26:33.650Z,100247.91
2023-04-25T06:29:01.518Z,100244.09
2023-04-25T06:31:30.200Z,100240.16
2023-04-25T06:33:58.023Z,100237.00
2023-04-25T06:36:28.725Z,100243.38
2023-04-25T06:38:56.500Z,100250.53
2023-04-25T06:41:24.289Z,100250.97
2023-04-25T06:43:52.254Z,100250.09
2023-04-25T06:46:20.135Z,100244.28
2023-04-25T06:48:48.278Z,100242.16
2023-04-25T06:51:15.962Z,100242.16
2023-04-25T06:53:43.764Z,100236.97
2023-04-25T06:56:11.712Z,100244.28
2023-04-25T06:58:39.954Z,100246.97
2023-04-25T07:01:07.599Z,100253.41
2023-04-25T07:03:35.904Z,100256.31
2023-04-25T07:06:03.860Z,100257.03
2023-04-25T07:08:31.835Z,100254.34
2023-04-25T07:10:59.791Z,100255.47
2023-04-25T07:13:27.758Z,100254.25
2023-04-25T07:15:57.369Z,100259.03
2023-04-25T07:18:25.254Z,100259.75
2023-04-25T07:20:53.066Z,100250.78
2023-04-25T07:23:21.224Z,100249.56
2023-04-25T07:25:49.040Z,100253.44
2023-04-25T07:28:19.282Z,100255.25
2023-04-25T07:30:47.413Z,100255.84
2023-04-25T07:33:15.718Z,100263.81
2023-04-25T07:35:43.719Z,100263.41
2023-04-25T07:38:11.574Z,100264.19
2023-04-25T07:40:39.151Z,100259.25
2023-04-25T07:43:07.044Z,100255.22
2023-04-25T07:45:34.851Z,100254.00
2023-04-25T07:48:04.117Z,100253.41
2023-04-25T07:50:32.064Z,100252.84
2023-04-25T07:53:00.600Z,100252.13
2023-04-25T07:55:28.971Z,100245.75
2023-04-25T07:57:56.862Z,100243.28
2023-04-25T08:00:24.725Z,100249.38
2023-04-25T08:02:52.596Z,100242.94
2023-04-25T08:05:22.709Z,100244.47
2023-04-25T08:07:51.138Z,100236.81
2023-04-25T08:10:19.087Z,100233.88
2023-04-25T08:12:46.844Z,100234.28
2023-04-25T08:15:14.841Z,100230.47
2023-04-25T08:17:42.786Z,100222.09
2023-04-25T08:20:11.972Z,100244.09
2023-04-25T08:22:40.492Z,100224.16
2023-04-25T08:25:08.434Z,100228.19
2023-04-25T08:27:36.239Z,100234.00
2023-04-25T08:30:04.926Z,100229.84
2023-04-25T08:32:35.439Z,100232.75
2023-04-25T08:35:03.384Z,100247.84
2023-04-25T08:37:31.520Z,100237.31
2023-04-25T08:39:59.365Z,100236.84
2023-04-25T08:42:28.810Z,100238.28
2023-04-25T08:44:57.421Z,100241.16
2023-04-25T08:47:27.178Z,100232.91
2023-04-25T08:49:56.245Z,100236.63
2023-04-25T08:52:25.355Z,100237.28
2023-04-25T08:54:55.384Z,100231.53
2023-04-25T08:57:24.405Z,100235.69
2023-04-25T08:59:53.922Z,100231.09
2023-04-25T09:02:22.228Z,100240.88
2023-04-25T09:04:50.890Z,100230.13
2023-04-25T09:07:22.268Z,100229.72
2023-04-25T09:09:50.127Z,100240.28
2023-04-25T09:12:21.223Z,100239.06
2023-04-25T09:15:05.283Z,100236.38
2023-04-25T09:17:33.409Z,100251.94
2023-04-25T09:20:11.643Z,100249.88
2023-04-25T09:22:40.193Z,100243.75
2023-04-25T09:25:11.724Z,100241.81
2023-04-25T09:28:04.288Z,100244.97
2023-04-25T09:30:34.685Z,100242.19
2023-04-25T09:33:10.046Z,100241.75
2023-04-25T09:35:43.320Z,100245.34
2023-04-25T09:38:15.990Z,100238.47
2023-04-25T09:40:46.324Z,100237.19
2023-04-25T09:43:22.247Z,100241.47
2023-04-25T09:45:52.753Z,100239.78
2023-04-25T09:48:22.066Z,100245.16
2023-04-25T09:51:19.293Z,100250.03
2023-04-25T09:53:51.789Z,100254.56
2023-04-25T09:56:22.576Z,100249.91
2023-04-25T09:58:54.829Z,100256.13
2023-04-25T10:01:24.327Z,100256.69
2023-04-25T10:03:53.842Z,100256.31
2023-04-25T10:06:26.529Z,100261.81
2023-04-25T10:08:56.807Z,100258.03
2023-04-25T10:11:27.255Z,100261.44
2023-04-25T10:13:55.802Z,100259.19
2023-04-25T10:16:23.984Z,100257.44
2023-04-25T10:18:52.837Z,100257.50
2023-04-25T10:21:21.994Z,100267.31
2023-04-25T10:23:50.907Z,100263.13
2023-04-25T10:26:19.290Z,100264.88
2023-04-25T10:28:58.803Z,100256.91
2023-04-25T10:31:26.972Z,100260.22
2023-04-25T10:33:55.014Z,100253.97
2023-04-25T10:36:24.458Z,100249.56
2023-04-25T10:38:53.709Z,100257.09
2023-04-25T10:41:23.863Z,100255.69
2023-04-25T10:44:02.354Z,100256.03
2023-04-25T10:46:33.387Z,100263.03
2023-04-25T10:49:02.610Z,100251.84
2023-04-25T10:51:47.320Z,100269.47
2023-04-25T10:54:26.127Z,100264.72
2023-04-25T10:56:54.364Z,100269.66
2023-04-25T10:59:26.342Z,100260.50
2023-04-25T11:01:55.916Z,100265.88
2023-04-25T11:04:30.913Z,100268.34
2023-04-25T11:07:24.014Z,100269.84
2023-04-25T11:09:52.317Z,100269.13
2023-04-25T11:12:20.283Z,100273.22
2023-04-25T11:14:48.286Z,100274.19
2023-04-25T11:17:16.163Z,100265.94
2023-04-25T11:19:43.962Z,100269.47
2023-04-25T11:22:13.172Z,100266.69
2023-04-25T11:24:41.020Z,100262.78
2023-04-25T11:27:09.839Z,100257.31
2023-04-25T11:29:37.648Z,100259.25
2023-04-25T11:32:06.172Z,100252.19
2023-04-25T11:34:34.652Z,100257.66
2023-04-25T11:37:03.597Z,100256.94
2023-04-25T11:39:31.339Z,100264.47
2023-04-25T11:41:59.884Z,100258.28
2023-04-25T11:44:31.117Z,100264.47
2023-04-25T11:46:58.954Z,100264.53
2023-04-25T11:49:32.537Z,100275.84
2023-04-25T11:52:00.445Z,100280.50
2023-04-25T11:54:28.186Z,100291.25
2023-04-25T11:56:56.149Z,100285.56
2023-04-25T11:59:27.418Z,100292.06
2023-04-25T12:01:55.330Z,100290.22
2023-04-25T12:04:24.731Z,100293.00
2023-04-25T12:06:55.348Z,100292.84
2023-04-25T12:09:31.514Z,100285.50
2023-04-25T12:12:00.520Z,100302.25
2023-04-25T12:14:30.361Z,100291.63
2023-04-25T12:16:59.953Z,100297.84
2023-04-25T12:19:36.178Z,100300.31
2023-04-25T12:22:19.374Z,100289.03
2023-04-25T12:24:47.343Z,100287.34
2023-04-25T12:27:17.389Z,100288.06
2023-04-25T12:29:56.758Z,100276.97
2023-04-25T12:32:24.955Z,100274.38
2023-04-25T12:34:52.988Z,100265.25
2023-04-25T12:37:20.762Z,100273.72
2023-04-25T12:39:48.658Z,100262.78
2023-04-25T12:42:16.511Z,100256.75
2023-04-25T12:44:44.317Z,100264.16
2023-04-25T12:47:12.018Z,100259.44
2023-04-25T12:49:39.914Z,100266.09
2023-04-25T12:52:07.772Z,100259.81
2023-04-25T12:54:36.333Z,100252.44
2023-04-25T12:57:04.340Z,100255.41
2023-04-25T12:59:32.309Z,100255.50
2023-04-25T13:02:00.563Z,100236.38
2023-04-25T13:04:28.785Z,100243.41
2023-04-25T13:06:56.988Z,100240.34
2023-04-25T13:09:24.792Z,100227.94
2023-04-25T13:11:54.883Z,100231.72
2023-04-25T13:14:25.093Z,100243.06
2023-04-25T13:16:53.000Z,100242.50
2023-04-25T13:19:21.346Z,100236.28
2023-04-25T13:21:49.207Z,100236.44
2023-04-25T13:24:17.705Z,100243.50
2023-04-25T13:26:45.684Z,100244.78
2023-04-25T13:29:13.366Z,100252.47
2023-04-25T13:31:41.336Z,100244.13
2023-04-25T13:34:09.309Z,100255.94
2023-04-25T13:36:37.093Z,100235.16
2023-04-25T13:39:08.255Z,100248.31
2023-04-25T13:41:35.873Z,100242.69
2023-04-25T13:44:06.005Z,100235.09
2023-04-25T13:46:45.534Z,100247.13
2023-04-25T13:49:15.025Z,100257.53
2023-04-25T13:51:43.634Z,100261.34
2023-04-25T13:54:11.518Z,100257.94
2023-04-25T13:56:39.613Z,100257.50
2023-04-25T13:59:08.020Z,100266.84
2023-04-25T14:01:36.886Z,100274.56
2023-04-25T14:04:05.436Z,100274.81
2023-04-25T14:06:34.018Z,100272.03
2023-04-25T14:09:02.301Z,100273.25
2023-04-25T14:11:30.104Z,100270.94
2023-04-25T14:13:58.017Z,100274.31
2023-04-25T14:16:26.029Z,100272.63
2023-04-25T14:18:55.585Z,100265.28
2023-04-25T14:21:23.456Z,100255.94
2023-04-25T14:23:51.515Z,100250.56
2023-04-25T14:26:19.908Z,100237.88
2023-04-25T14:28:48.017Z,100241.03
2023-04-25T14:31:16.530Z,100241.03
2023-04-25T14:33:44.408Z,100238.41
2023-04-25T14:36:12.368Z,100235.28
2023-04-25T14:38:40.310Z,100240.72
2023-04-25T14:41:08.195Z,100236.09
2023-04-25T14:43:37.399Z,100243.91
2023-04-25T14:46:05.313Z,100243.16
2023-04-25T14:48:33.339Z,100242.13
2023-04-25T14:51:01.611Z,100238.06
2023-04-25T14:53:29.722Z,100246.31
2023-04-25T14:55:57.639Z,100248.34
2023-04-25T14:58:25.150Z,100253.44
2023-04-25T15:00:53.340Z,100260.38
2023-04-25T15:03:21.469Z,100256.91
2023-04-25T15:05:49.451Z,100279.47
2023-04-25T15:08:17.035Z,100256.41
2023-04-25T15:10:45.045Z,100234.78
2023-04-25T15:13:12.853Z,100237.56
2023-04-25T15:15:40.997Z,100233.81
2023-04-25T15:18:08.484Z,100226.75
2023-04-25T15:20:36.452Z,100234.91
2023-04-25T15:23:05.861Z,100238.25
2023-04-25T15:25:33.565Z,100234.63
2023-04-25T15:28:01.304Z,100231.31
2023-04-25T15:30:29.076Z,100237.03
2023-04-25T15:32:56.679Z,100229.81
2023-04-25T15:35:24.416Z,100237.03
2023-04-25T15:37:52.343Z,100247.31
2023-04-25T15:40:20.165Z,100243.25
2023-04-25T15:42:52.701Z,100252.91
2023-04-25T15:45:22.380Z,100243.25
2023-04-25T15:47:51.444Z,100255.97
2023-04-25T15:50:19.672Z,100247.91
2023-04-25T15:52:51.010Z,100254.16
2023-04-25T15:55:21.697Z,100256.44
2023-04-25T15:57:51.545Z,100265.88
2023-04-25T16:00:21.261Z,100264.94
2023-04-25T16:02:49.504Z,100271.25
2023-04-25T16:05:18.750Z,100263.59
2023-04-25T16:07:46.933Z,100269.16
2023-04-25T16:10:20.144Z,100260.16
2023-04-25T16:12:49.594Z,100265.00
2023-04-25T16:15:17.931Z,100260.81
2023-04-25T16:17:45.669Z,100262.13
2023-04-25T16:20:13.568Z,100266.50
2023-04-25T16:22:42.851Z,100266.50
2023-04-25T16:25:11.982Z,100272.53
2023-04-25T16:27:39.757Z,100280.56
2023-04-25T16:30:09.466Z,100267.34
2023-04-25T16:32:39.906Z,100267.31
2023-04-25T16:35:08.307Z,100268.50
2023-04-25T16:37:36.556Z,100273.16
2023-04-25T16:40:04.739Z,100271.66
2023-04-25T16:42:33.061Z,100285.34
2023-04-25T16:45:00.625Z,100302.16
2023-04-25T16:47:28.124Z,100305.63
2023-04-25T16:49:55.871Z,100307.25
2023-04-25T16:52:23.963Z,100321.28
2023-04-25T16:54:51.547Z,100319.81
2023-04-25T16:57:19.082Z,100329.66
2023-04-25T16:59:46.657Z,100311.44
2023-04-25T17:02:15.484Z,100319.69
2023-04-25T17:04:43.074Z,100297.88
2023-04-25T17:07:11.037Z,100283.38
2023-04-25T17:09:39.022Z,100277.34
2023-04-25T17:12:07.330Z,100255.78
2023-04-25T17:14:36.069Z,100258.13
2023-04-25T17:17:03.944Z,100253.97
2023-04-25T17:19:32.147Z,100256.97
2023-04-25T17:22:00.083Z,100254.81
2023-04-25T17:24:27.918Z,100253.81
2023-04-25T17:26:57.370Z,100252.59
2023-04-25T17:29:26.971Z,100256.63
2023-04-25T17:31:57.155Z,100265.47
2023-04-25T17:34:25.682Z,100257.94
2023-04-25T17:36:53.251Z,100257.06
2023-04-25T17:39:21.606Z,100269.16
2023-04-25T17:41:50.701Z,100264.31
2023-04-25T17:44:19.327Z,100272.97
2023-04-25T17:46:47.184Z,100270.53
2023-04-25T17:49:15.036Z,100262.50
2023-04-25T17:51:42.759Z,100265.50
2023-04-25T17:54:10.486Z,100268.03
2023-04-25T17:56:38.550Z,100272.00
2023-04-25T17:59:07.237Z,100264.13
2023-04-25T18:01:35.232Z,100271.28
2023-04-25T18:04:04.377Z,100271.84
2023-04-25T18:06:33.134Z,100277.66
2023-04-25T18:09:02.683Z,100273.19
2023-04-25T18:11:30.839Z,100272.69
2023-04-25T18:13:58.623Z,100271.53
2023-04-25T18:16:26.756Z,100283.88
2023-04-25T18:18:54.972Z,100281.00
2023-04-25T18:21:23.145Z,100273.56
2023-04-25T18:23:51.091Z,100268.56
2023-04-25T18:26:20.246Z,100256.44
2023-04-25T18:28:48.321Z,100256.81
2023-04-25T18:31:17.444Z,100257.94
2023-04-25T18:33:45.555Z,100249.63
2023-04-25T18:36:13.410Z,100261.97
2023-04-25T18:38:41.077Z,100265.34
2023-04-25T18:41:34.127Z,100274.50
2023-04-25T18:44:02.487Z,100276.31
2023-04-25T18:46:34.409Z,100271.50
2023-04-25T18:49:02.837Z,100268.63
2023-04-25T18:51:31.612Z,100265.34
2023-04-25T18:54:00.574Z,100261.50
2023-04-25T18:56:28.628Z,100257.47
2023-04-25T18:58:57.544Z,100268.16
2023-04-25T19:01:25.983Z,100265.69
2023-04-25T19:03:58.000Z,100261.47
2023-04-25T19:06:29.030Z,100258.78
2023-04-25T19:08:58.260Z,100261.41
2023-04-25T19:11:26.391Z,100265.38
2023-04-25T19:13:57.552Z,100256.03
2023-04-25T19:16:27.500Z,100254.56
2023-04-25T19:18:56.776Z,100250.22
2023-04-25T19:21:24.541Z,100251.72
2023-04-25T19:23:54.378Z,100254.56
2023-04-25T19:26:22.829Z,100246.09
2023-04-25T19:29:05.900Z,100242.38
2023-04-25T19:31:35.622Z,100250.06
2023-04-25T19:34:05.157Z,100257.25
2023-04-25T19:36:33.209Z,100245.25
2023-04-25T19:39:03.780Z,100238.56
2023-04-25T19:41:33.524Z,100241.06
2023-04-25T19:44:07.183Z,100239.59
2023-04-25T19:46:37.069Z,100236.91
2023-04-25T19:49:09.068Z,100238.56
2023-04-25T19:51:37.575Z,100239.56
2023-04-25T19:54:06.094Z,100233.53
2023-04-25T19:56:34.017Z,100244.34
2023-04-25T19:59:01.902Z,100240.69
2023-04-25T20:01:30.637Z,100234.69
2023-04-25T20:03:58.953Z,100235.34
2023-04-25T20:06:27.364Z,100229.66
2023-04-25T20:08:55.537Z,100225.13
2023-04-25T20:11:23.839Z,100227.34
2023-04-25T20:13:51.838Z,100227.28
2023-04-25T20:16:21.749Z,100219.00
2023-04-25T20:18:49.538Z,100217.97
2023-04-25T20:21:17.601Z,100218.09
2023-04-25T20:23:45.970Z,100220.44
2023-04-25T20:26:13.581Z,100212.25
2023-04-25T20:28:41.962Z,100215.22
2023-04-25T20:31:11.024Z,100214.38
2023-04-25T20:33:39.066Z,100217.03
2023-04-25T20:36:06.615Z,100208.00
2023-04-25T20:38:34.087Z,100208.66
2023-04-25T20:41:02.186Z,100201.81
2023-04-25T20:43:31.374Z,100216.97
2023-04-25T20:46:00.357Z,100216.63
2023-04-25T20:48:28.124Z,100210.31
2023-04-25T20:50:56.394Z,100219.63
2023-04-25T20:53:24.244Z,100221.13
2023-04-25T20:55:52.345Z,100218.94
2023-04-25T20:58:20.790Z,100220.63
2023-04-25T21:00:49.015Z,100219.25
2023-04-25T21:03:17.525Z,100215.59
2023-04-25T21:05:45.241Z,100218.94
2023-04-25T21:08:13.404Z,100218.78
2023-04-25T21:10:41.237Z,100219.78
2023-04-25T21:13:08.929Z,100218.69
2023-04-25T21:15:36.482Z,100219.38
2023-04-25T21:18:04.584Z,100214.50
2023-04-25T21:20:32.646Z,100216.50
2023-04-25T21:23:00.447Z,100213.00
2023-04-25T21:25:31.778Z,100217.97
2023-04-25T21:28:00.169Z,100215.03
2023-04-25T21:30:28.290Z,100230.66
2023-04-25T21:32:56.400Z,100220.25
2023-04-25T21:35:24.032Z,100215.06
2023-04-25T21:37:52.285Z,100218.53
2023-04-25T21:40:20.259Z,100224.97
2023-04-25T21:42:51.572Z,100232.16
2023-04-25T21:45:20.676Z,100223.94
2023-04-25T21:47:48.575Z,100220.88
2023-04-25T21:50:18.357Z,100223.72
2023-04-25T21:52:45.938Z,100216.31
2023-04-25T21:55:13.525Z,100218.72
2023-04-25T21:57:41.495Z,100214.66
2023-04-25T22:00:24.745Z,100211.28
2023-04-25T22:02:52.893Z,100211.47
2023-04-25T22:05:22.471Z,100219.53
2023-04-25T22:07:51.676Z,100213.50
2023-04-25T22:10:21.430Z,100210.72
2023-04-25T22:12:52.082Z,100211.38
2023-04-25T22:15:23.637Z,100210.53
2023-04-25T22:17:54.063Z,100207.59
2023-04-25T22:20:26.222Z,100196.53
2023-04-25T22:22:56.570Z,100204.97
2023-04-25T22:25:25.129Z,100202.47
2023-04-25T22:27:53.027Z,100203.09
2023-04-25T22:30:20.686Z,100204.38
2023-04-25T22:32:48.558Z,100201.78
2023-04-25T22:35:16.073Z,100199.50
2023-04-25T22:37:43.601Z,100204.69
2023-04-25T22:40:11.737Z,100207.34
2023-04-25T22:42:40.483Z,100203.16
2023-04-25T22:45:08.927Z,100202.31
2023-04-25T22:47:38.741Z,100199.72
2023-04-25T22:50:08.656Z,100194.56
2023-04-25T22:52:36.525Z,100194.75
2023-04-25T22:55:04.671Z,100184.91
2023-04-25T22:57:32.195Z,100186.75
2023-04-25T23:00:00.293Z,100198.53
2023-04-25T23:02:28.350Z,100198.53
2023-04-25T23:04:56.282Z,100198.81
2023-04-25T23:07:24.158Z,100201.78
2023-04-25T23:09:52.109Z,100195.09
2023-04-25T23:12:20.014Z,100195.91
2023-04-25T23:14:53.714Z,100203.13
2023-04-25T23:17:21.190Z,100203.59
2023-04-25T23:19:48.777Z,100204.66
2023-04-25T23:22:16.342Z,100203.13
2023-04-25T23:24:44.956Z,100200.19
2023-04-25T23:27:12.917Z,100199.88
2023-04-25T23:29:41.060Z,100189.25
2023-04-25T23:32:12.679Z,100193.41
2023-04-25T23:34:40.243Z,100186.81
2023-04-25T23:37:08.539Z,100193.41
2023-04-25T23:39:36.164Z,100190.34
2023-04-25T23:42:03.816Z,100195.31
2023-04-25T23:44:31.838Z,100192.22
2023-04-25T23:46:59.494Z,100184.72
2023-04-25T23:49:27.215Z,100193.66
2023-04-25T23:51:54.680Z,100192.28
2023-04-25T23:54:22.172Z,100206.16
2023-04-25T23:56:49.960Z,100213.31
2023-04-25T23:59:17.665Z,100209.84
